Impacts METAR Board
IDs:

KSFO - San Francisco Intl, CA, US

Updated at: 0200 UTC 23 Sep 2018
Potential Impact None Slight Moderate High
Time 22/14Z 22/15Z 22/16Z 22/17Z 22/18Z 22/19Z 22/20Z 22/21Z 22/22Z 22/23Z 23/00Z 23/01Z 23/02Z
Temp55 56 56 58 59 64 65 64 65 64 61 58 55
Dewpt53 53 53 53 52 52 52 52 51 51 50 49 50
Altim29.98 29.99 29.99 30.00 30.00 29.99 29.98 29.95 29.93 29.92 29.91 29.91 29.90
VIS1.5 5 7 4 8 10 10 10 10 10 10 10 10
CIG5 5 5 8 -- -- -- -- -- -- -- -- --
CoverOVCOVCOVCBKNFEWFEWFEWFEWSCTFEWFEWFEWSCT
FltCatIFRIFRIFRIFRVFRVFRVFRVFRVFRVFRVFRVFRVFR
WXBRBR--BR------------------
WDir000330330320300300290310310290300
WSpd0 0 3 4 6 9 14 11 17 18 16 17 14
WGst-- -- -- -- -- -- -- -- -- -- -- -- --
Raw hourly METARs
KSFO 221356Z 00000KT 1 1/2SM BR OVC005 13/12 A2998 RMK AO2 SLP152 T01280117
KSFO 221456Z 00000KT 5SM BR OVC005 13/12 A2999 RMK AO2 SLP155 T01330117 53005
KSFO 221556Z VRB03KT 7SM OVC005 13/12 A2999 RMK AO2 SLP156 T01330117
KSFO 221656Z COR 33004KT 4SM BR SCT006 BKN008 14/12 A3000 RMK AO2 SLP157 T01440117
KSFO 221756Z 33006KT 8SM FEW009 FEW200 15/11 A3000 RMK AO2 SLP157 T01500111 10150 20111 50002 $
KSFO 221856Z 32009KT 10SM FEW009 FEW200 18/11 A2999 RMK AO2 SLP154 T01780111 $
KSFO 221956Z 30014KT 10SM FEW005 FEW200 18/11 A2998 RMK AO2 SLP150 T01830111 $
KSFO 222056Z 30011KT 10SM FEW006 FEW200 18/11 A2995 RMK AO2 SLP141 T01780111 58016 $
KSFO 222156Z 29017KT 10SM FEW005 SCT180 18/11 A2993 RMK AO2 SLP134 T01830106 $
KSFO 222256Z 31018KT 10SM FEW005 FEW180 18/11 A2992 RMK AO2 SLP130 T01780106 $
KSFO 222356Z 31016KT 10SM FEW005 FEW200 16/10 A2991 RMK AO2 SLP126 T01610100 10189 20156 56014 $
KSFO 230056Z 29017KT 10SM FEW004 FEW200 14/09 A2991 RMK AO2 SLP127 T01440094 $
KSFO 230156Z 30014KT 10SM FEW003 SCT200 13/10 A2990 RMK AO2 SLP125 T01280100 $



Page loaded:  02:09 UTC  |   07:09 PM Pacific  |   08:09 PM Mountain  |   09:09 PM Central  |   10:09 PM Eastern

 

ADVISORIES

FORECASTS

FORECASTS

OBSERVATIONS

USER TOOLS

ABOUT US